Weather Outlook 8th November 2019 (6pm)

Unstable conditions associated with a tropical wave will dominate the weather pattern during the next 48 hours.

Occasional light to moderate showers and a moderate chance (60%) of isolated thunderstorms are possible tonight into Saturday.  Lingering moisture will continue into Sunday with similar conditions.

Scattered showers are likely on Monday due to unstable conditions moving across the island chain.

A moderate east to east north-easterly (E-ENE) wind flow will continue over the weekend, with higher gust near showers.  Sea conditions will be slight to moderate in open waters (1.0m -2.0m) throughout this forecast period. There will be no significant haze intrusion within this forecast period.

 

Aviation WX

[Source: ADDS]
METAR
TVSA 132300Z 02004KT 9999 FEW018 27/24 Q1010 NOSIG =
TVSA 132300Z 1400/1424 07007KT 9999 SCT020
TAF
TVSA 132300Z 1400/1424 07007KT 9999 SCT020 =
SR / SS: 10:02 / 21:34 UTC (Sunrise Sunset 2019-11-13)